Canso, Canada
Current Conditions -  °F | °C
As of 7:00 AM on Sunday 23 Nov 2014 (Local Time) from CYPD Reporting Station
Overcast Overcast  
Wind Chill: 29°   Ceiling: 2300
Heat Index: 37°   Visibility: 9mi
Dew Point: 36°   Wind: 14mph
Humidity: 93%   Direction: 260°W
Pressure: 29.82"   Gusts: 21mph
Location:  45.34°N, 61°W
Report Text: CYPD 231100Z AUTO 26012G18KT 9SM SCT012 BKN023 OVC039 03/02 A2982 RMK SLP105
Loading
Personal Weather Stations






























Interactive Weather Map New forecast layout! Learn more

10-Day Weather Forecast

Advertisements
Track Severe Weather on mobile